sensor_id;sensor_type;location;lat;lon;timestamp;temperature;humidity
66184;DHT22;52989;48.796;9.806;2022-12-16T00:03:37;-0.40;99.90
66184;DHT22;52989;48.796;9.806;2022-12-16T00:06:04;-0.50;99.90
66184;DHT22;52989;48.796;9.806;2022-12-16T00:08:32;-0.50;99.90
66184;DHT22;52989;48.796;9.806;2022-12-16T00:10:58;-0.50;99.90
66184;DHT22;52989;48.796;9.806;2022-12-16T00:13:24;-0.60;99.90
66184;DHT22;52989;48.796;9.806;2022-12-16T00:15:50;-0.10;99.90
66184;DHT22;52989;48.796;9.806;2022-12-16T00:18:15;-0.40;99.90
66184;DHT22;52989;48.796;9.806;2022-12-16T00:20:48;-0.60;99.90
66184;DHT22;52989;48.796;9.806;2022-12-16T00:23:14;-0.30;99.90
66184;DHT22;52989;48.796;9.806;2022-12-16T00:25:44;0.00;99.90
66184;DHT22;52989;48.796;9.806;2022-12-16T00:28:11;0.10;99.90
66184;DHT22;52989;48.796;9.806;2022-12-16T00:30:37;0.50;99.90
66184;DHT22;52989;48.796;9.806;2022-12-16T00:33:04;-0.20;99.90
66184;DHT22;52989;48.796;9.806;2022-12-16T00:35:30;-0.50;99.90
66184;DHT22;52989;48.796;9.806;2022-12-16T00:37:56;-0.10;99.90
66184;DHT22;52989;48.796;9.806;2022-12-16T00:40:22;-0.30;99.90
66184;DHT22;52989;48.796;9.806;2022-12-16T00:42:47;-0.50;99.90
66184;DHT22;52989;48.796;9.806;2022-12-16T00:45:13;-0.50;99.90
66184;DHT22;52989;48.796;9.806;2022-12-16T00:47:39;-0.60;99.90
66184;DHT22;52989;48.796;9.806;2022-12-16T00:50:05;-0.60;99.90
66184;DHT22;52989;48.796;9.806;2022-12-16T00:52:31;-0.70;99.90
66184;DHT22;52989;48.796;9.806;2022-12-16T00:54:56;-0.60;99.90
66184;DHT22;52989;48.796;9.806;2022-12-16T00:57:22;0.10;99.90
66184;DHT22;52989;48.796;9.806;2022-12-16T00:59:47;-0.20;99.90
66184;DHT22;52989;48.796;9.806;2022-12-16T01:02:13;-0.10;99.90
66184;DHT22;52989;48.796;9.806;2022-12-16T01:04:39;-0.20;99.90
66184;DHT22;52989;48.796;9.806;2022-12-16T01:07:04;0.30;99.90
66184;DHT22;52989;48.796;9.806;2022-12-16T01:09:30;0.00;99.90
66184;DHT22;52989;48.796;9.806;2022-12-16T01:11:55;-0.10;99.90
66184;DHT22;52989;48.796;9.806;2022-12-16T01:14:21;-0.30;99.90
66184;DHT22;52989;48.796;9.806;2022-12-16T01:16:46;0.10;99.90
66184;DHT22;52989;48.796;9.806;2022-12-16T01:19:12;0.20;99.90
66184;DHT22;52989;48.796;9.806;2022-12-16T01:21:37;0.20;99.90
66184;DHT22;52989;48.796;9.806;2022-12-16T01:24:03;0.30;99.90
66184;DHT22;52989;48.796;9.806;2022-12-16T01:26:29;0.20;99.90
66184;DHT22;52989;48.796;9.806;2022-12-16T01:28:56;-0.30;99.90
66184;DHT22;52989;48.796;9.806;2022-12-16T01:31:21;-0.20;99.90
66184;DHT22;52989;48.796;9.806;2022-12-16T01:33:47;0.60;99.90
66184;DHT22;52989;48.796;9.806;2022-12-16T01:36:13;0.80;99.90
66184;DHT22;52989;48.796;9.806;2022-12-16T01:51:48;0.60;99.90
66184;DHT22;52989;48.796;9.806;2022-12-16T01:54:17;0.10;99.90
66184;DHT22;52989;48.796;9.806;2022-12-16T01:56:49;-0.40;99.90
66184;DHT22;52989;48.796;9.806;2022-12-16T01:59:16;-0.10;99.90
66184;DHT22;52989;48.796;9.806;2022-12-16T02:01:42;-0.50;99.90
66184;DHT22;52989;48.796;9.806;2022-12-16T02:04:08;0.00;99.90
66184;DHT22;52989;48.796;9.806;2022-12-16T02:06:34;-0.50;99.90
66184;DHT22;52989;48.796;9.806;2022-12-16T02:09:02;-0.80;99.90
66184;DHT22;52989;48.796;9.806;2022-12-16T02:17:02;-0.70;99.90
66184;DHT22;52989;48.796;9.806;2022-12-16T02:19:59;-0.50;99.90
66184;DHT22;52989;48.796;9.806;2022-12-16T02:22:45;-0.20;99.90
66184;DHT22;52989;48.796;9.806;2022-12-16T02:31:32;-0.20;99.90
66184;DHT22;52989;48.796;9.806;2022-12-16T02:37:13;0.00;99.90
66184;DHT22;52989;48.796;9.806;2022-12-16T02:39:49;0.20;99.90
66184;DHT22;52989;48.796;9.806;2022-12-16T02:42:29;0.10;99.90
66184;DHT22;52989;48.796;9.806;2022-12-16T02:45:02;-0.30;99.90
66184;DHT22;52989;48.796;9.806;2022-12-16T02:47:29;-0.50;99.90
66184;DHT22;52989;48.796;9.806;2022-12-16T02:49:55;-0.30;99.90
66184;DHT22;52989;48.796;9.806;2022-12-16T02:52:29;-0.10;99.90
66184;DHT22;52989;48.796;9.806;2022-12-16T02:55:01;0.30;99.90
66184;DHT22;52989;48.796;9.806;2022-12-16T02:57:40;0.30;99.90
66184;DHT22;52989;48.796;9.806;2022-12-16T03:07:53;0.30;99.90
66184;DHT22;52989;48.796;9.806;2022-12-16T03:10:25;0.00;99.90
66184;DHT22;52989;48.796;9.806;2022-12-16T03:12:53;-0.10;99.90
66184;DHT22;52989;48.796;9.806;2022-12-16T03:15:22;0.40;99.90
66184;DHT22;52989;48.796;9.806;2022-12-16T03:17:50;-0.30;99.90
66184;DHT22;52989;48.796;9.806;2022-12-16T03:20:22;0.10;99.90
66184;DHT22;52989;48.796;9.806;2022-12-16T03:22:51;-0.10;99.90
66184;DHT22;52989;48.796;9.806;2022-12-16T03:25:19;-0.10;99.90
66184;DHT22;52989;48.796;9.806;2022-12-16T03:30:35;-0.60;99.90
66184;DHT22;52989;48.796;9.806;2022-12-16T03:33:22;0.20;99.90
66184;DHT22;52989;48.796;9.806;2022-12-16T03:35:59;-0.20;99.90
66184;DHT22;52989;48.796;9.806;2022-12-16T03:38:27;0.40;99.90
66184;DHT22;52989;48.796;9.806;2022-12-16T03:40:56;1.10;99.90
66184;DHT22;52989;48.796;9.806;2022-12-16T03:43:23;0.80;99.90
66184;DHT22;52989;48.796;9.806;2022-12-16T03:45:51;0.40;99.90
66184;DHT22;52989;48.796;9.806;2022-12-16T03:48:22;0.10;99.90
66184;DHT22;52989;48.796;9.806;2022-12-16T03:50:48;-0.50;99.90
66184;DHT22;52989;48.796;9.806;2022-12-16T03:53:13;0.40;99.90
66184;DHT22;52989;48.796;9.806;2022-12-16T03:55:39;0.20;99.90
66184;DHT22;52989;48.796;9.806;2022-12-16T03:58:05;0.00;99.90
66184;DHT22;52989;48.796;9.806;2022-12-16T04:00:31;0.10;99.90
66184;DHT22;52989;48.796;9.806;2022-12-16T04:02:57;0.20;99.90
66184;DHT22;52989;48.796;9.806;2022-12-16T04:05:22;-0.40;99.90
66184;DHT22;52989;48.796;9.806;2022-12-16T04:07:48;-0.10;99.90
66184;DHT22;52989;48.796;9.806;2022-12-16T04:10:14;-0.30;99.90
66184;DHT22;52989;48.796;9.806;2022-12-16T04:12:39;-0.40;99.90
66184;DHT22;52989;48.796;9.806;2022-12-16T04:15:23;-0.10;99.90
66184;DHT22;52989;48.796;9.806;2022-12-16T04:18:13;0.00;99.90
66184;DHT22;52989;48.796;9.806;2022-12-16T04:20:58;0.30;99.90
66184;DHT22;52989;48.796;9.806;2022-12-16T04:23:51;-0.10;99.90
66184;DHT22;52989;48.796;9.806;2022-12-16T04:26:36;0.50;99.90
66184;DHT22;52989;48.796;9.806;2022-12-16T04:29:20;0.00;99.90
66184;DHT22;52989;48.796;9.806;2022-12-16T04:31:46;0.40;99.90
66184;DHT22;52989;48.796;9.806;2022-12-16T04:34:11;0.10;99.90
66184;DHT22;52989;48.796;9.806;2022-12-16T04:36:58;0.20;99.90
66184;DHT22;52989;48.796;9.806;2022-12-16T04:39:43;0.10;99.90
66184;DHT22;52989;48.796;9.806;2022-12-16T04:42:27;-0.10;99.90
66184;DHT22;52989;48.796;9.806;2022-12-16T04:45:12;0.10;99.90
66184;DHT22;52989;48.796;9.806;2022-12-16T04:47:56;-0.30;99.90
66184;DHT22;52989;48.796;9.806;2022-12-16T04:50:40;-0.30;99.90
66184;DHT22;52989;48.796;9.806;2022-12-16T04:53:25;-0.20;99.90
66184;DHT22;52989;48.796;9.806;2022-12-16T04:56:09;-0.20;99.90
66184;DHT22;52989;48.796;9.806;2022-12-16T04:58:53;-0.40;99.90
66184;DHT22;52989;48.796;9.806;2022-12-16T05:01:37;-0.10;99.90
66184;DHT22;52989;48.796;9.806;2022-12-16T05:04:21;0.00;99.90
66184;DHT22;52989;48.796;9.806;2022-12-16T05:07:05;-0.50;99.90
66184;DHT22;52989;48.796;9.806;2022-12-16T05:09:49;-0.40;99.90
66184;DHT22;52989;48.796;9.806;2022-12-16T05:12:33;-0.40;99.90
66184;DHT22;52989;48.796;9.806;2022-12-16T05:15:17;-0.20;99.90
66184;DHT22;52989;48.796;9.806;2022-12-16T05:18:12;-0.40;99.90
66184;DHT22;52989;48.796;9.806;2022-12-16T05:20:57;-0.50;99.90
66184;DHT22;52989;48.796;9.806;2022-12-16T05:23:42;-0.10;99.90
66184;DHT22;52989;48.796;9.806;2022-12-16T05:26:26;-0.30;99.90
66184;DHT22;52989;48.796;9.806;2022-12-16T05:29:10;-0.50;99.90
66184;DHT22;52989;48.796;9.806;2022-12-16T05:31:54;-0.60;99.90
66184;DHT22;52989;48.796;9.806;2022-12-16T05:34:38;0.00;99.90
66184;DHT22;52989;48.796;9.806;2022-12-16T05:37:22;-0.20;99.90
66184;DHT22;52989;48.796;9.806;2022-12-16T05:40:08;-0.60;99.90
66184;DHT22;52989;48.796;9.806;2022-12-16T05:42:52;-0.50;99.90
66184;DHT22;52989;48.796;9.806;2022-12-16T05:45:36;-0.20;99.90
66184;DHT22;52989;48.796;9.806;2022-12-16T05:48:20;-0.30;99.90
66184;DHT22;52989;48.796;9.806;2022-12-16T05:51:04;-0.50;99.90
66184;DHT22;52989;48.796;9.806;2022-12-16T05:53:48;-0.50;99.90
66184;DHT22;52989;48.796;9.806;2022-12-16T05:56:32;-0.20;99.90
66184;DHT22;52989;48.796;9.806;2022-12-16T05:59:16;-0.40;99.90
66184;DHT22;52989;48.796;9.806;2022-12-16T06:02:00;-0.30;99.90
66184;DHT22;52989;48.796;9.806;2022-12-16T06:04:44;-0.50;99.90
66184;DHT22;52989;48.796;9.806;2022-12-16T06:07:28;-0.60;99.90
66184;DHT22;52989;48.796;9.806;2022-12-16T06:10:12;-0.60;99.90
66184;DHT22;52989;48.796;9.806;2022-12-16T06:12:56;-0.60;99.90
66184;DHT22;52989;48.796;9.806;2022-12-16T06:15:40;-0.10;99.90
66184;DHT22;52989;48.796;9.806;2022-12-16T06:18:24;-0.30;99.90
66184;DHT22;52989;48.796;9.806;2022-12-16T06:21:08;-0.70;99.90
66184;DHT22;52989;48.796;9.806;2022-12-16T06:23:52;-0.40;99.90
66184;DHT22;52989;48.796;9.806;2022-12-16T06:26:36;-0.70;99.90
66184;DHT22;52989;48.796;9.806;2022-12-16T06:29:20;-1.00;99.90
66184;DHT22;52989;48.796;9.806;2022-12-16T06:32:04;-0.80;99.90
66184;DHT22;52989;48.796;9.806;2022-12-16T06:34:48;-0.50;99.90
66184;DHT22;52989;48.796;9.806;2022-12-16T06:37:32;-0.30;99.90
66184;DHT22;52989;48.796;9.806;2022-12-16T06:40:16;-0.10;99.90
66184;DHT22;52989;48.796;9.806;2022-12-16T06:43:00;-0.40;99.90
66184;DHT22;52989;48.796;9.806;2022-12-16T06:45:44;-0.30;99.90
66184;DHT22;52989;48.796;9.806;2022-12-16T06:48:28;-0.10;99.90
66184;DHT22;52989;48.796;9.806;2022-12-16T06:51:12;-0.50;99.90
66184;DHT22;52989;48.796;9.806;2022-12-16T06:53:56;-0.40;99.90
66184;DHT22;52989;48.796;9.806;2022-12-16T06:56:40;-0.30;99.90
66184;DHT22;52989;48.796;9.806;2022-12-16T06:59:24;-0.60;99.90
66184;DHT22;52989;48.796;9.806;2022-12-16T07:02:10;-0.50;99.90
66184;DHT22;52989;48.796;9.806;2022-12-16T07:04:54;-0.40;99.90
66184;DHT22;52989;48.796;9.806;2022-12-16T07:07:38;0.00;99.90
66184;DHT22;52989;48.796;9.806;2022-12-16T07:10:22;-0.40;99.90
66184;DHT22;52989;48.796;9.806;2022-12-16T07:13:06;-0.60;99.90
66184;DHT22;52989;48.796;9.806;2022-12-16T07:15:50;-0.50;99.90
66184;DHT22;52989;48.796;9.806;2022-12-16T07:18:34;-0.60;99.90
66184;DHT22;52989;48.796;9.806;2022-12-16T07:21:18;-0.50;99.90
66184;DHT22;52989;48.796;9.806;2022-12-16T07:24:03;-0.50;99.90
66184;DHT22;52989;48.796;9.806;2022-12-16T07:26:47;-0.60;99.90
66184;DHT22;52989;48.796;9.806;2022-12-16T07:29:31;-0.80;99.90
66184;DHT22;52989;48.796;9.806;2022-12-16T07:32:15;-0.60;99.90
66184;DHT22;52989;48.796;9.806;2022-12-16T07:34:59;-0.80;99.90
66184;DHT22;52989;48.796;9.806;2022-12-16T07:37:43;-0.70;99.90
66184;DHT22;52989;48.796;9.806;2022-12-16T07:40:27;-0.70;99.90
66184;DHT22;52989;48.796;9.806;2022-12-16T07:43:11;-0.70;99.90
66184;DHT22;52989;48.796;9.806;2022-12-16T07:45:55;-0.50;99.90
66184;DHT22;52989;48.796;9.806;2022-12-16T07:48:39;-0.60;99.90
66184;DHT22;52989;48.796;9.806;2022-12-16T07:51:23;-0.80;99.90
66184;DHT22;52989;48.796;9.806;2022-12-16T07:54:07;-1.00;99.90
66184;DHT22;52989;48.796;9.806;2022-12-16T07:56:51;-0.90;99.90
66184;DHT22;52989;48.796;9.806;2022-12-16T07:59:35;-0.80;99.90
66184;DHT22;52989;48.796;9.806;2022-12-16T08:02:20;-0.60;99.90
66184;DHT22;52989;48.796;9.806;2022-12-16T08:05:04;-1.00;99.90
66184;DHT22;52989;48.796;9.806;2022-12-16T08:07:48;-0.70;99.90
66184;DHT22;52989;48.796;9.806;2022-12-16T08:10:32;-0.90;99.90
66184;DHT22;52989;48.796;9.806;2022-12-16T08:13:16;-0.60;99.90
66184;DHT22;52989;48.796;9.806;2022-12-16T08:16:00;-0.60;99.90
66184;DHT22;52989;48.796;9.806;2022-12-16T08:18:44;-0.60;99.90
66184;DHT22;52989;48.796;9.806;2022-12-16T08:21:28;-0.60;99.90
66184;DHT22;52989;48.796;9.806;2022-12-16T08:24:12;-0.40;99.90
66184;DHT22;52989;48.796;9.806;2022-12-16T08:26:56;-0.70;99.90
66184;DHT22;52989;48.796;9.806;2022-12-16T08:29:40;-0.60;99.90
66184;DHT22;52989;48.796;9.806;2022-12-16T08:32:24;-0.60;99.90
66184;DHT22;52989;48.796;9.806;2022-12-16T08:35:08;-0.50;99.90
66184;DHT22;52989;48.796;9.806;2022-12-16T08:37:56;-0.30;99.90
66184;DHT22;52989;48.796;9.806;2022-12-16T08:40:42;-0.10;99.90
66184;DHT22;52989;48.796;9.806;2022-12-16T08:43:29;-0.30;99.90
66184;DHT22;52989;48.796;9.806;2022-12-16T08:46:13;-0.60;99.90
66184;DHT22;52989;48.796;9.806;2022-12-16T08:48:57;-0.70;99.90
66184;DHT22;52989;48.796;9.806;2022-12-16T08:51:41;-0.40;99.90
66184;DHT22;52989;48.796;9.806;2022-12-16T08:54:25;-0.40;99.90
66184;DHT22;52989;48.796;9.806;2022-12-16T08:57:09;-0.80;99.90
66184;DHT22;52989;48.796;9.806;2022-12-16T08:59:53;-1.00;99.90
66184;DHT22;52989;48.796;9.806;2022-12-16T09:02:37;-0.70;99.90
66184;DHT22;52989;48.796;9.806;2022-12-16T09:05:23;-0.60;99.90
66184;DHT22;52989;48.796;9.806;2022-12-16T09:08:06;-0.70;99.90
66184;DHT22;52989;48.796;9.806;2022-12-16T09:10:50;-0.50;99.90
66184;DHT22;52989;48.796;9.806;2022-12-16T09:13:34;-0.50;99.90
66184;DHT22;52989;48.796;9.806;2022-12-16T09:16:18;-0.50;99.90
66184;DHT22;52989;48.796;9.806;2022-12-16T09:19:03;-0.30;99.90
66184;DHT22;52989;48.796;9.806;2022-12-16T09:21:47;-0.10;99.90
66184;DHT22;52989;48.796;9.806;2022-12-16T09:24:31;0.30;99.90
66184;DHT22;52989;48.796;9.806;2022-12-16T09:27:15;-0.10;99.90
66184;DHT22;52989;48.796;9.806;2022-12-16T09:29:59;-0.20;99.90
66184;DHT22;52989;48.796;9.806;2022-12-16T09:32:43;-0.10;99.90
66184;DHT22;52989;48.796;9.806;2022-12-16T09:35:28;-0.20;99.90
66184;DHT22;52989;48.796;9.806;2022-12-16T09:38:12;-0.20;99.90
66184;DHT22;52989;48.796;9.806;2022-12-16T09:40:59;-0.20;99.90
66184;DHT22;52989;48.796;9.806;2022-12-16T09:44:32;0.20;99.90
66184;DHT22;52989;48.796;9.806;2022-12-16T09:47:29;-0.10;99.90
66184;DHT22;52989;48.796;9.806;2022-12-16T09:50:20;0.00;99.90
66184;DHT22;52989;48.796;9.806;2022-12-16T09:53:10;-0.10;99.90
66184;DHT22;52989;48.796;9.806;2022-12-16T09:55:55;0.30;99.90
66184;DHT22;52989;48.796;9.806;2022-12-16T09:58:43;-0.10;99.90
66184;DHT22;52989;48.796;9.806;2022-12-16T10:01:33;0.10;99.90
66184;DHT22;52989;48.796;9.806;2022-12-16T10:04:17;0.20;99.90
66184;DHT22;52989;48.796;9.806;2022-12-16T10:07:01;0.40;99.90
66184;DHT22;52989;48.796;9.806;2022-12-16T10:10:24;0.40;99.90
66184;DHT22;52989;48.796;9.806;2022-12-16T10:16:46;0.10;99.90
66184;DHT22;52989;48.796;9.806;2022-12-16T10:22:44;0.20;99.90
66184;DHT22;52989;48.796;9.806;2022-12-16T10:25:50;0.30;99.90
66184;DHT22;52989;48.796;9.806;2022-12-16T10:28:57;0.30;99.90
66184;DHT22;52989;48.796;9.806;2022-12-16T10:31:45;0.40;99.90
66184;DHT22;52989;48.796;9.806;2022-12-16T10:34:31;0.50;99.90
66184;DHT22;52989;48.796;9.806;2022-12-16T10:37:32;0.50;99.90
66184;DHT22;52989;48.796;9.806;2022-12-16T10:40:20;0.20;99.90
66184;DHT22;52989;48.796;9.806;2022-12-16T10:43:13;-0.40;99.90
66184;DHT22;52989;48.796;9.806;2022-12-16T10:46:00;0.00;99.90
66184;DHT22;52989;48.796;9.806;2022-12-16T10:48:48;0.20;99.90
66184;DHT22;52989;48.796;9.806;2022-12-16T10:51:33;0.40;99.90
66184;DHT22;52989;48.796;9.806;2022-12-16T10:57:36;0.70;99.90
66184;DHT22;52989;48.796;9.806;2022-12-16T11:00:39;0.70;99.90
66184;DHT22;52989;48.796;9.806;2022-12-16T11:03:29;0.20;99.90
66184;DHT22;52989;48.796;9.806;2022-12-16T11:06:38;0.30;99.90
66184;DHT22;52989;48.796;9.806;2022-12-16T11:09:29;0.60;99.90
66184;DHT22;52989;48.796;9.806;2022-12-16T11:12:31;0.50;99.90
66184;DHT22;52989;48.796;9.806;2022-12-16T11:15:35;0.20;99.90
66184;DHT22;52989;48.796;9.806;2022-12-16T11:18:20;0.10;99.90
66184;DHT22;52989;48.796;9.806;2022-12-16T11:21:15;0.50;99.90
66184;DHT22;52989;48.796;9.806;2022-12-16T11:24:14;0.20;99.90
66184;DHT22;52989;48.796;9.806;2022-12-16T11:32:57;0.30;99.90
66184;DHT22;52989;48.796;9.806;2022-12-16T11:35:48;0.30;99.90
66184;DHT22;52989;48.796;9.806;2022-12-16T11:38:40;0.50;99.90
66184;DHT22;52989;48.796;9.806;2022-12-16T11:41:36;0.50;99.90
66184;DHT22;52989;48.796;9.806;2022-12-16T11:44:26;0.60;99.90
66184;DHT22;52989;48.796;9.806;2022-12-16T11:47:34;0.70;99.90
66184;DHT22;52989;48.796;9.806;2022-12-16T11:50:23;0.80;99.90
66184;DHT22;52989;48.796;9.806;2022-12-16T11:56:05;0.30;99.90
66184;DHT22;52989;48.796;9.806;2022-12-16T11:59:05;0.50;99.90
66184;DHT22;52989;48.796;9.806;2022-12-16T12:01:55;0.60;99.90
66184;DHT22;52989;48.796;9.806;2022-12-16T12:04:41;0.60;99.90
66184;DHT22;52989;48.796;9.806;2022-12-16T12:07:34;0.80;99.90
66184;DHT22;52989;48.796;9.806;2022-12-16T12:16:08;0.70;99.90
66184;DHT22;52989;48.796;9.806;2022-12-16T12:19:04;0.40;99.90
66184;DHT22;52989;48.796;9.806;2022-12-16T12:22:01;0.40;99.60
66184;DHT22;52989;48.796;9.806;2022-12-16T12:31:39;0.70;99.60
66184;DHT22;52989;48.796;9.806;2022-12-16T12:38:01;0.70;99.90
66184;DHT22;52989;48.796;9.806;2022-12-16T12:41:10;0.60;99.90
66184;DHT22;52989;48.796;9.806;2022-12-16T12:44:05;0.80;99.90
66184;DHT22;52989;48.796;9.806;2022-12-16T12:46:57;0.80;99.90
66184;DHT22;52989;48.796;9.806;2022-12-16T12:50:07;0.50;99.90
66184;DHT22;52989;48.796;9.806;2022-12-16T12:56:07;0.40;99.90
66184;DHT22;52989;48.796;9.806;2022-12-16T12:58:59;0.50;99.90
66184;DHT22;52989;48.796;9.806;2022-12-16T13:01:45;0.20;99.90
66184;DHT22;52989;48.796;9.806;2022-12-16T13:04:31;0.10;99.90
66184;DHT22;52989;48.796;9.806;2022-12-16T13:07:16;0.40;99.90
66184;DHT22;52989;48.796;9.806;2022-12-16T13:10:33;0.40;99.90
66184;DHT22;52989;48.796;9.806;2022-12-16T13:16:10;0.50;99.90
66184;DHT22;52989;48.796;9.806;2022-12-16T13:22:33;0.10;99.90
66184;DHT22;52989;48.796;9.806;2022-12-16T13:25:38;0.40;99.90
66184;DHT22;52989;48.796;9.806;2022-12-16T13:28:32;0.20;99.90
66184;DHT22;52989;48.796;9.806;2022-12-16T13:31:17;0.30;99.90
66184;DHT22;52989;48.796;9.806;2022-12-16T13:36:59;0.20;99.90
66184;DHT22;52989;48.796;9.806;2022-12-16T13:40:02;0.50;99.90
66184;DHT22;52989;48.796;9.806;2022-12-16T13:42:50;0.40;99.90
66184;DHT22;52989;48.796;9.806;2022-12-16T13:48:48;-0.20;99.90
66184;DHT22;52989;48.796;9.806;2022-12-16T13:54:40;0.20;99.90
66184;DHT22;52989;48.796;9.806;2022-12-16T13:57:28;-0.10;99.90
66184;DHT22;52989;48.796;9.806;2022-12-16T14:00:18;-0.10;99.90
66184;DHT22;52989;48.796;9.806;2022-12-16T14:03:04;-0.30;99.90
66184;DHT22;52989;48.796;9.806;2022-12-16T14:05:53;-0.30;99.90
66184;DHT22;52989;48.796;9.806;2022-12-16T14:08:41;-0.20;99.90
66184;DHT22;52989;48.796;9.806;2022-12-16T14:15:07;0.20;99.90
66184;DHT22;52989;48.796;9.806;2022-12-16T14:17:59;0.40;99.90
66184;DHT22;52989;48.796;9.806;2022-12-16T14:20:50;0.00;99.90
66184;DHT22;52989;48.796;9.806;2022-12-16T14:23:45;-0.10;99.90
66184;DHT22;52989;48.796;9.806;2022-12-16T14:26:41;-0.10;99.90
66184;DHT22;52989;48.796;9.806;2022-12-16T14:29:30;-0.40;99.90
66184;DHT22;52989;48.796;9.806;2022-12-16T14:35:02;-0.50;99.90
66184;DHT22;52989;48.796;9.806;2022-12-16T14:37:46;-0.60;99.90
66184;DHT22;52989;48.796;9.806;2022-12-16T14:40:31;-0.60;99.90
66184;DHT22;52989;48.796;9.806;2022-12-16T14:46:03;-0.30;99.90
66184;DHT22;52989;48.796;9.806;2022-12-16T14:48:48;-0.10;99.90
66184;DHT22;52989;48.796;9.806;2022-12-16T14:51:35;-0.10;99.90
66184;DHT22;52989;48.796;9.806;2022-12-16T14:54:26;0.00;99.90
66184;DHT22;52989;48.796;9.806;2022-12-16T14:57:24;0.20;99.90
66184;DHT22;52989;48.796;9.806;2022-12-16T15:00:13;-0.10;99.90
66184;DHT22;52989;48.796;9.806;2022-12-16T15:03:31;0.30;99.90
66184;DHT22;52989;48.796;9.806;2022-12-16T15:06:27;0.00;99.90
66184;DHT22;52989;48.796;9.806;2022-12-16T15:09:28;0.30;99.90
66184;DHT22;52989;48.796;9.806;2022-12-16T15:12:15;-0.10;99.90
66184;DHT22;52989;48.796;9.806;2022-12-16T15:15:03;0.00;99.90
66184;DHT22;52989;48.796;9.806;2022-12-16T15:17:55;0.00;99.90
66184;DHT22;52989;48.796;9.806;2022-12-16T15:20:52;-0.20;99.90
66184;DHT22;52989;48.796;9.806;2022-12-16T15:23:42;-0.10;99.90
66184;DHT22;52989;48.796;9.806;2022-12-16T15:26:30;-0.20;99.90
66184;DHT22;52989;48.796;9.806;2022-12-16T15:29:38;-0.40;99.90
66184;DHT22;52989;48.796;9.806;2022-12-16T15:32:35;-0.20;99.90
66184;DHT22;52989;48.796;9.806;2022-12-16T15:35:32;-0.20;99.90
66184;DHT22;52989;48.796;9.806;2022-12-16T15:44:19;-0.50;99.90
66184;DHT22;52989;48.796;9.806;2022-12-16T15:47:16;-0.50;99.90
66184;DHT22;52989;48.796;9.806;2022-12-16T15:50:03;-0.10;99.90
66184;DHT22;52989;48.796;9.806;2022-12-16T15:52:47;-0.20;99.90
66184;DHT22;52989;48.796;9.806;2022-12-16T15:55:37;-0.20;99.90
66184;DHT22;52989;48.796;9.806;2022-12-16T15:58:33;-0.30;99.90
66184;DHT22;52989;48.796;9.806;2022-12-16T16:01:22;-0.50;99.90
66184;DHT22;52989;48.796;9.806;2022-12-16T16:04:25;-0.50;99.90
66184;DHT22;52989;48.796;9.806;2022-12-16T16:07:19;-0.70;99.90
66184;DHT22;52989;48.796;9.806;2022-12-16T16:10:23;-0.60;99.90
66184;DHT22;52989;48.796;9.806;2022-12-16T16:13:08;-0.90;99.90
66184;DHT22;52989;48.796;9.806;2022-12-16T16:15:53;-0.90;99.90
66184;DHT22;52989;48.796;9.806;2022-12-16T16:18:39;-1.10;99.90
66184;DHT22;52989;48.796;9.806;2022-12-16T16:21:25;-0.50;99.90
66184;DHT22;52989;48.796;9.806;2022-12-16T16:24:08;-0.90;99.90
66184;DHT22;52989;48.796;9.806;2022-12-16T16:26:53;-1.10;99.90
66184;DHT22;52989;48.796;9.806;2022-12-16T16:29:38;-0.60;99.90
66184;DHT22;52989;48.796;9.806;2022-12-16T16:32:22;-0.40;99.90
66184;DHT22;52989;48.796;9.806;2022-12-16T16:35:06;-0.30;99.90
66184;DHT22;52989;48.796;9.806;2022-12-16T16:37:50;-0.20;99.90
66184;DHT22;52989;48.796;9.806;2022-12-16T16:40:37;-0.80;99.90
66184;DHT22;52989;48.796;9.806;2022-12-16T16:43:22;-0.60;99.90
66184;DHT22;52989;48.796;9.806;2022-12-16T16:49:03;-0.90;99.90
66184;DHT22;52989;48.796;9.806;2022-12-16T16:51:48;-0.40;99.90
66184;DHT22;52989;48.796;9.806;2022-12-16T16:54:32;-0.60;99.90
66184;DHT22;52989;48.796;9.806;2022-12-16T16:57:16;-0.30;99.90
66184;DHT22;52989;48.796;9.806;2022-12-16T17:00:20;-0.50;99.90
66184;DHT22;52989;48.796;9.806;2022-12-16T17:03:04;-0.40;99.90
66184;DHT22;52989;48.796;9.806;2022-12-16T17:05:48;-0.40;99.90
66184;DHT22;52989;48.796;9.806;2022-12-16T17:08:32;-0.20;99.90
66184;DHT22;52989;48.796;9.806;2022-12-16T17:11:18;-0.50;99.90
66184;DHT22;52989;48.796;9.806;2022-12-16T17:14:03;-0.50;99.90
66184;DHT22;52989;48.796;9.806;2022-12-16T17:16:48;-0.80;99.90
66184;DHT22;52989;48.796;9.806;2022-12-16T17:19:32;-0.70;99.90
66184;DHT22;52989;48.796;9.806;2022-12-16T17:22:16;-0.90;99.90
66184;DHT22;52989;48.796;9.806;2022-12-16T17:25:00;-0.40;99.90
66184;DHT22;52989;48.796;9.806;2022-12-16T17:27:44;-0.50;99.90
66184;DHT22;52989;48.796;9.806;2022-12-16T17:30:28;-0.40;99.90
66184;DHT22;52989;48.796;9.806;2022-12-16T17:33:13;-0.60;99.90
66184;DHT22;52989;48.796;9.806;2022-12-16T17:35:57;-0.90;99.90
66184;DHT22;52989;48.796;9.806;2022-12-16T17:38:43;-1.00;99.90
66184;DHT22;52989;48.796;9.806;2022-12-16T17:41:28;-1.10;99.90
66184;DHT22;52989;48.796;9.806;2022-12-16T17:44:12;-1.30;99.90
66184;DHT22;52989;48.796;9.806;2022-12-16T17:46:56;-0.90;99.90
66184;DHT22;52989;48.796;9.806;2022-12-16T17:49:40;-0.90;99.90
66184;DHT22;52989;48.796;9.806;2022-12-16T17:52:24;-0.60;99.90
66184;DHT22;52989;48.796;9.806;2022-12-16T17:55:08;-0.10;99.90
66184;DHT22;52989;48.796;9.806;2022-12-16T17:57:52;-0.50;99.90
66184;DHT22;52989;48.796;9.806;2022-12-16T18:00:37;-0.30;99.90
66184;DHT22;52989;48.796;9.806;2022-12-16T18:03:21;-0.70;99.90
66184;DHT22;52989;48.796;9.806;2022-12-16T18:06:05;-1.00;99.90
66184;DHT22;52989;48.796;9.806;2022-12-16T18:08:49;-1.00;99.90
66184;DHT22;52989;48.796;9.806;2022-12-16T18:11:33;-1.40;99.90
66184;DHT22;52989;48.796;9.806;2022-12-16T18:14:17;-1.30;99.90
66184;DHT22;52989;48.796;9.806;2022-12-16T18:17:01;-1.60;99.90
66184;DHT22;52989;48.796;9.806;2022-12-16T18:19:45;-1.60;99.90
66184;DHT22;52989;48.796;9.806;2022-12-16T18:22:29;-1.30;99.90
66184;DHT22;52989;48.796;9.806;2022-12-16T18:25:13;-1.30;99.90
66184;DHT22;52989;48.796;9.806;2022-12-16T18:27:57;-1.40;99.90
66184;DHT22;52989;48.796;9.806;2022-12-16T18:30:41;-1.50;99.90
66184;DHT22;52989;48.796;9.806;2022-12-16T18:33:25;-1.40;99.90
66184;DHT22;52989;48.796;9.806;2022-12-16T18:36:09;-1.20;99.90
66184;DHT22;52989;48.796;9.806;2022-12-16T18:38:53;-1.00;99.90
66184;DHT22;52989;48.796;9.806;2022-12-16T18:41:42;-1.10;99.90
66184;DHT22;52989;48.796;9.806;2022-12-16T18:44:27;-1.00;99.90
66184;DHT22;52989;48.796;9.806;2022-12-16T18:47:11;-0.80;99.90
66184;DHT22;52989;48.796;9.806;2022-12-16T18:49:55;-1.30;99.90
66184;DHT22;52989;48.796;9.806;2022-12-16T18:52:39;-1.70;99.90
66184;DHT22;52989;48.796;9.806;2022-12-16T18:55:23;-1.50;99.90
66184;DHT22;52989;48.796;9.806;2022-12-16T18:58:07;-1.40;99.90
66184;DHT22;52989;48.796;9.806;2022-12-16T19:00:58;-1.10;99.90
66184;DHT22;52989;48.796;9.806;2022-12-16T19:03:43;-1.50;99.90
66184;DHT22;52989;48.796;9.806;2022-12-16T19:06:27;-1.60;99.90
66184;DHT22;52989;48.796;9.806;2022-12-16T19:09:11;-1.80;99.90